Taha, China
Current Conditions -  °F | °C
As of 1:00 AM on Monday 22 Dec 2014 (Local Time) from ZYHB Reporting Station
Light Snow Light Snow  
Wind Chill: -9°   Ceiling: Unl
Heat Index:   Visibility: 3mi
Dew Point: -2°   Wind: 7mph
Humidity: 78%   Direction: 250°WSW
Pressure: 29.83"   Gusts: NA
Location:  47.56°N, 124.22°E
Report Text: ZYHB 211700Z 25003MPS 5000 -SN BR FEW033 M16/M19 Q1010 NOSIG
Loading
Personal Weather Stations






























Interactive Weather Map New forecast layout! Learn more

10-Day Weather Forecast

Advertisements
Track Severe Weather on mobile